createdAt,value
2023-01-07T00:01:10.914Z,96291.75
2023-01-07T00:03:42.387Z,96294.41
2023-01-07T00:06:12.834Z,96288.28
2023-01-07T00:08:45.595Z,96291.19
2023-01-07T00:11:16.956Z,96277.91
2023-01-07T00:13:47.587Z,96279.16
2023-01-07T00:16:17.344Z,96267.72
2023-01-07T00:18:52.281Z,96271.66
2023-01-07T00:21:24.677Z,96264.16
2023-01-07T00:23:55.581Z,96266.56
2023-01-07T00:26:28.646Z,96275.56
2023-01-07T00:29:00.800Z,96264.94
2023-01-07T00:31:33.797Z,96272.69
2023-01-07T00:34:09.761Z,96265.75
2023-01-07T00:36:43.323Z,96265.75
2023-01-07T00:39:14.491Z,96263.91
2023-01-07T00:42:05.340Z,96260.78
2023-01-07T00:44:38.110Z,96256.72
2023-01-07T00:47:07.305Z,96255.09
2023-01-07T00:49:36.580Z,96254.06
2023-01-07T00:52:08.651Z,96254.88
2023-01-07T00:54:37.932Z,96258.09
2023-01-07T00:57:06.938Z,96262.03
2023-01-07T00:59:37.333Z,96266.56
2023-01-07T01:02:06.901Z,96271.56
2023-01-07T01:04:36.037Z,96254.78
2023-01-07T01:07:06.389Z,96260.34
2023-01-07T01:09:35.263Z,96253.31
2023-01-07T01:12:06.943Z,96262.22
2023-01-07T01:14:37.249Z,96262.13
2023-01-07T01:17:06.493Z,96259.94
2023-01-07T01:19:35.345Z,96271.16
2023-01-07T01:22:04.327Z,96271.97
2023-01-07T01:24:33.356Z,96271.38
2023-01-07T01:27:02.288Z,96260.50
2023-01-07T01:29:31.592Z,96258.06
2023-01-07T01:32:02.471Z,96257.84
2023-01-07T01:34:32.341Z,96256.47
2023-01-07T01:37:01.318Z,96258.31
2023-01-07T01:39:30.390Z,96252.41
2023-01-07T01:41:59.392Z,96255.88
2023-01-07T01:44:39.678Z,96261.31
2023-01-07T01:47:18.353Z,96251.25
2023-01-07T01:49:49.410Z,96249.72
2023-01-07T01:52:19.628Z,96242.31
2023-01-07T01:54:50.374Z,96242.31
2023-01-07T01:57:19.800Z,96240.25
2023-01-07T01:59:51.241Z,96234.69
2023-01-07T02:02:24.468Z,96234.44
2023-01-07T02:04:53.513Z,96239.75
2023-01-07T02:07:24.724Z,96234.44
2023-01-07T02:10:00.710Z,96244.03
2023-01-07T02:12:40.743Z,96245.66
2023-01-07T02:15:12.103Z,96243.00
2023-01-07T02:17:52.400Z,96241.13
2023-01-07T02:20:32.189Z,96235.81
2023-01-07T02:23:26.566Z,96232.47
2023-01-07T02:26:16.542Z,96233.50
2023-01-07T02:29:09.212Z,96232.69
2023-01-07T02:32:12.955Z,96228.97
2023-01-07T02:34:44.846Z,96227.38
2023-01-07T02:37:15.809Z,96213.25
2023-01-07T02:39:51.484Z,96207.47
2023-01-07T02:42:24.304Z,96212.78
2023-01-07T02:44:57.216Z,96210.13
2023-01-07T02:47:28.801Z,96215.19
2023-01-07T02:50:00.412Z,96222.63
2023-01-07T02:52:30.314Z,96217.31
2023-01-07T02:55:00.489Z,96218.34
2023-01-07T02:57:56.236Z,96205.84
2023-01-07T03:00:34.119Z,96207.69
2023-01-07T03:03:17.493Z,96206.09
2023-01-07T03:05:51.060Z,96207.13
2023-01-07T03:08:50.945Z,96202.59
2023-01-07T03:11:19.984Z,96196.47
2023-01-07T03:13:50.975Z,96201.81
2023-01-07T03:16:23.980Z,96205.28
2023-01-07T03:18:57.703Z,96205.28
2023-01-07T03:21:26.587Z,96198.34
2023-01-07T03:23:57.697Z,96199.72
2023-01-07T03:26:29.986Z,96195.66
2023-01-07T03:29:01.445Z,96194.06
2023-01-07T03:31:30.739Z,96187.13
2023-01-07T03:34:02.423Z,96190.81
2023-01-07T03:36:32.624Z,96195.59
2023-01-07T03:39:01.748Z,96193.16
2023-01-07T03:41:44.440Z,96196.38
2023-01-07T03:44:14.968Z,96192.13
2023-01-07T03:46:44.217Z,96183.88
2023-01-07T03:49:14.720Z,96184.69
2023-01-07T03:51:43.934Z,96187.34
2023-01-07T03:54:12.892Z,96172.44
2023-01-07T03:56:42.216Z,96180.75
2023-01-07T03:59:11.285Z,96188.97
2023-01-07T04:01:40.841Z,96191.03
2023-01-07T04:04:09.924Z,96184.94
2023-01-07T04:06:40.431Z,96181.47
2023-01-07T04:09:09.408Z,96175.34
2023-01-07T04:11:38.542Z,96167.38
2023-01-07T04:14:08.170Z,96163.09
2023-01-07T04:16:37.171Z,96160.44
2023-01-07T04:19:06.176Z,96165.19
2023-01-07T04:21:35.149Z,96167.59
2023-01-07T04:24:08.644Z,96148.41
2023-01-07T04:26:38.696Z,96146.56
2023-01-07T04:29:08.141Z,96148.63
2023-01-07T04:31:37.156Z,96151.88
2023-01-07T04:34:06.328Z,96147.03
2023-01-07T04:36:35.255Z,96141.69
2023-01-07T04:39:04.140Z,96144.34
2023-01-07T04:41:35.309Z,96145.16
2023-01-07T04:44:04.201Z,96142.75
2023-01-07T04:46:33.166Z,96145.75
2023-01-07T04:49:02.097Z,96147.59
2023-01-07T04:51:31.008Z,96140.88
2023-01-07T04:54:00.790Z,96137.41
2023-01-07T04:56:29.722Z,96138.72
2023-01-07T04:59:00.242Z,96137.09
2023-01-07T05:01:31.300Z,96130.16
2023-01-07T05:04:01.474Z,96135.50
2023-01-07T05:06:31.324Z,96130.41
2023-01-07T05:09:00.667Z,96128.56
2023-01-07T05:11:29.816Z,96126.13
2023-01-07T05:14:02.944Z,96126.13
2023-01-07T05:16:34.846Z,96133.06
2023-01-07T05:19:08.190Z,96129.84
2023-01-07T05:21:41.449Z,96133.53
2023-01-07T05:24:10.455Z,96129.25
2023-01-07T05:26:39.390Z,96136.41
2023-01-07T05:29:11.225Z,96134.03
2023-01-07T05:31:41.278Z,96128.13
2023-01-07T05:34:10.799Z,96135.88
2023-01-07T05:36:40.097Z,96134.25
2023-01-07T05:39:09.806Z,96128.38
2023-01-07T05:41:39.806Z,96128.38
2023-01-07T05:44:10.888Z,96123.28
2023-01-07T05:46:39.747Z,96121.66
2023-01-07T05:49:10.083Z,96121.91
2023-01-07T05:51:38.916Z,96127.22
2023-01-07T05:54:07.998Z,96124.81
2023-01-07T05:56:36.856Z,96125.84
2023-01-07T05:59:05.766Z,96119.72
2023-01-07T06:01:36.354Z,96123.44
2023-01-07T06:04:05.254Z,96122.63
2023-01-07T06:06:34.172Z,96122.63
2023-01-07T06:09:03.166Z,96122.63
2023-01-07T06:11:32.154Z,96128.75
2023-01-07T06:14:01.072Z,96126.09
2023-01-07T06:16:30.382Z,96115.69
2023-01-07T06:19:00.993Z,96116.25
2023-01-07T06:21:30.000Z,96115.91
2023-01-07T06:23:59.013Z,96115.91
2023-01-07T06:26:28.122Z,96105.28
2023-01-07T06:28:57.334Z,96113.50
2023-01-07T06:31:26.472Z,96107.38
2023-01-07T06:33:55.538Z,96111.06
2023-01-07T06:36:26.064Z,96113.72
2023-01-07T06:38:55.012Z,96108.66
2023-01-07T06:41:23.996Z,96113.19
2023-01-07T06:43:53.252Z,96103.34
2023-01-07T06:46:22.557Z,96100.94
2023-01-07T06:48:52.130Z,96095.38
2023-01-07T06:51:21.244Z,96099.66
2023-01-07T06:53:51.748Z,96101.25
2023-01-07T06:56:21.152Z,96102.03
2023-01-07T06:58:50.137Z,96098.59
2023-01-07T07:01:19.398Z,96095.13
2023-01-07T07:03:48.337Z,96094.88
2023-01-07T07:06:17.362Z,96094.88
2023-01-07T07:08:46.314Z,96094.06
2023-01-07T07:11:18.313Z,96098.34
2023-01-07T07:13:47.408Z,96096.72
2023-01-07T07:16:16.465Z,96082.16
2023-01-07T07:18:45.624Z,96087.25
2023-01-07T07:21:14.717Z,96092.34
2023-01-07T07:23:43.978Z,96094.75
2023-01-07T07:26:13.184Z,96092.91
2023-01-07T07:28:44.892Z,96091.84
2023-01-07T07:31:13.945Z,96088.13
2023-01-07T07:33:45.679Z,96089.75
2023-01-07T07:36:15.121Z,96097.25
2023-01-07T07:38:44.136Z,96099.69
2023-01-07T07:41:13.322Z,96094.38
2023-01-07T07:43:43.754Z,96094.38
2023-01-07T07:46:12.808Z,96099.44
2023-01-07T07:48:41.896Z,96099.19
2023-01-07T07:51:13.548Z,96098.16
2023-01-07T07:53:42.499Z,96095.50
2023-01-07T07:56:11.492Z,96100.56
2023-01-07T07:58:40.421Z,96098.50
2023-01-07T08:01:10.883Z,96098.50
2023-01-07T08:03:40.262Z,96099.88
2023-01-07T08:06:09.361Z,96095.13
2023-01-07T08:08:38.356Z,96095.66
2023-01-07T08:11:07.359Z,96099.13
2023-01-07T08:13:36.350Z,96097.06
2023-01-07T08:16:05.529Z,96092.31
2023-01-07T08:18:36.293Z,96087.88
2023-01-07T08:21:05.432Z,96084.16
2023-01-07T08:23:35.106Z,96089.81
2023-01-07T08:26:04.138Z,96085.59
2023-01-07T08:28:33.120Z,96085.38
2023-01-07T08:31:03.754Z,96078.19
2023-01-07T08:33:37.720Z,96075.88
2023-01-07T08:36:22.195Z,96080.69
2023-01-07T08:38:53.909Z,96076.50
2023-01-07T08:41:23.151Z,96069.91
2023-01-07T08:43:52.424Z,96075.53
2023-01-07T08:46:21.968Z,96072.41
2023-01-07T08:48:51.422Z,96070.63
2023-01-07T08:51:21.995Z,96066.66
2023-01-07T08:53:51.040Z,96056.34
2023-01-07T08:56:20.256Z,96056.69
2023-01-07T08:58:49.685Z,96062.06
2023-01-07T09:01:18.727Z,96056.25
2023-01-07T09:03:47.692Z,96052.03
2023-01-07T09:06:16.704Z,96047.84
2023-01-07T09:08:47.308Z,96052.69
2023-01-07T09:11:16.417Z,96049.50
2023-01-07T09:13:46.158Z,96052.50
2023-01-07T09:16:15.142Z,96047.75
2023-01-07T09:18:44.227Z,96052.56
2023-01-07T09:21:13.260Z,96045.94
2023-01-07T09:23:42.366Z,96052.06
2023-01-07T09:26:13.234Z,96053.22
2023-01-07T09:28:42.331Z,96047.59
2023-01-07T09:31:11.392Z,96046.81
2023-01-07T09:33:41.214Z,96043.91
2023-01-07T09:36:10.538Z,96046.56
2023-01-07T09:38:40.088Z,96035.91
2023-01-07T09:41:15.880Z,96041.22
2023-01-07T09:44:00.459Z,96029.28
2023-01-07T09:46:31.085Z,96028.78
2023-01-07T09:49:01.356Z,96028.28
2023-01-07T09:51:32.038Z,96017.38
2023-01-07T09:54:02.051Z,96021.91
2023-01-07T09:56:33.202Z,96021.66
2023-01-07T09:59:02.735Z,96017.69
2023-01-07T10:01:34.395Z,96009.47
2023-01-07T10:04:10.268Z,96009.75
2023-01-07T10:06:44.308Z,96008.69
2023-01-07T10:09:22.751Z,96003.94
2023-01-07T10:12:00.828Z,96006.41
2023-01-07T10:14:47.515Z,96007.53
2023-01-07T10:17:22.697Z,96000.09
2023-01-07T10:19:55.114Z,95996.66
2023-01-07T10:22:25.539Z,95991.06
2023-01-07T10:24:57.657Z,95998.50
2023-01-07T10:27:31.140Z,95994.75
2023-01-07T10:30:02.281Z,95989.41
2023-01-07T10:32:33.809Z,95980.63
2023-01-07T10:35:03.244Z,95977.97
2023-01-07T10:37:33.005Z,95971.28
2023-01-07T10:40:08.528Z,95964.66
2023-01-07T10:42:40.570Z,95961.53
2023-01-07T10:45:18.834Z,95956.22
2023-01-07T10:47:56.091Z,95952.13
2023-01-07T10:50:37.420Z,95950.06
2023-01-07T10:53:11.533Z,95950.63
2023-01-07T10:55:47.063Z,95948.25
2023-01-07T10:58:17.461Z,95945.88
2023-01-07T11:00:47.827Z,95935.78
2023-01-07T11:03:20.133Z,95941.16
2023-01-07T11:05:50.091Z,95933.47
2023-01-07T11:08:29.749Z,95934.25
2023-01-07T11:10:59.232Z,95929.47
2023-01-07T11:13:31.866Z,95925.47
2023-01-07T11:16:02.292Z,95929.50
2023-01-07T11:18:33.736Z,95920.22
2023-01-07T11:21:02.616Z,95914.63
2023-01-07T11:23:33.520Z,95911.19
2023-01-07T11:26:17.982Z,95916.22
2023-01-07T11:28:57.984Z,95913.56
2023-01-07T11:31:45.822Z,95906.66
2023-01-07T11:34:25.264Z,95898.94
2023-01-07T11:36:54.372Z,95900.31
2023-01-07T11:39:25.053Z,95896.59
2023-01-07T11:41:58.351Z,95898.78
2023-01-07T11:44:28.779Z,95887.28
2023-01-07T11:46:57.878Z,95885.69
2023-01-07T11:49:28.317Z,95883.28
2023-01-07T11:51:57.375Z,95879.50
2023-01-07T11:54:28.468Z,95874.16
2023-01-07T11:57:12.694Z,95876.81
2023-01-07T11:59:43.235Z,95872.28
2023-01-07T12:02:25.300Z,95862.91
2023-01-07T12:04:54.300Z,95859.13
2023-01-07T12:07:25.051Z,95854.34
2023-01-07T12:09:56.448Z,95848.94
2023-01-07T12:12:39.645Z,95852.94
2023-01-07T12:15:18.962Z,95848.88
2023-01-07T12:17:49.189Z,95847.22
2023-01-07T12:21:16.332Z,95845.63
2023-01-07T12:23:53.379Z,95824.53
2023-01-07T12:26:23.294Z,95831.72
2023-01-07T12:28:58.435Z,95824.44
2023-01-07T12:31:33.611Z,95826.81
2023-01-07T12:34:09.178Z,95814.78
2023-01-07T12:36:42.004Z,95810.22
2023-01-07T12:39:12.779Z,95811.56
2023-01-07T12:41:43.208Z,95804.59
2023-01-07T12:44:14.230Z,95802.19
2023-01-07T12:46:45.971Z,95798.72
2023-01-07T12:49:17.089Z,95791.53
2023-01-07T12:51:47.479Z,95791.56
2023-01-07T12:54:19.695Z,95788.63
2023-01-07T12:56:51.015Z,95781.19
2023-01-07T12:59:46.019Z,95777.72
2023-01-07T13:02:23.153Z,95766.81
2023-01-07T13:04:55.154Z,95772.16
2023-01-07T13:07:26.647Z,95777.22
2023-01-07T13:09:58.495Z,95766.00
2023-01-07T13:12:45.947Z,95771.59
2023-01-07T13:15:21.304Z,95751.06
2023-01-07T13:17:54.079Z,95750.53
2023-01-07T13:20:56.061Z,95742.53
2023-01-07T13:23:26.350Z,95742.50
2023-01-07T13:26:07.131Z,95726.25
2023-01-07T13:28:53.198Z,95736.66
2023-01-07T13:31:42.570Z,95730.53
2023-01-07T13:34:19.791Z,95734.75
2023-01-07T13:36:51.514Z,95735.31
2023-01-07T13:39:37.509Z,95732.66
2023-01-07T13:42:22.229Z,95724.34
2023-01-07T13:44:59.901Z,95720.06
2023-01-07T13:47:32.351Z,95720.31
2023-01-07T13:50:03.335Z,95711.00
2023-01-07T13:52:33.052Z,95718.44
2023-01-07T13:55:02.370Z,95713.38
2023-01-07T13:57:44.637Z,95709.34
2023-01-07T14:00:42.395Z,95710.16
2023-01-07T14:03:46.951Z,95701.34
2023-01-07T14:06:44.364Z,95700.28
2023-01-07T14:09:19.925Z,95693.59
2023-01-07T14:12:13.595Z,95698.13
2023-01-07T14:14:46.074Z,95695.69
2023-01-07T14:17:18.104Z,95674.91
2023-01-07T14:19:48.549Z,95676.78
2023-01-07T14:22:22.202Z,95674.63
2023-01-07T14:25:10.059Z,95672.75
2023-01-07T14:27:49.038Z,95658.13
2023-01-07T14:30:21.821Z,95655.47
2023-01-07T14:32:57.978Z,95652.50
2023-01-07T14:35:31.264Z,95652.25
2023-01-07T14:38:01.664Z,95643.22
2023-01-07T14:41:04.598Z,95655.16
2023-01-07T14:44:10.571Z,95649.28
2023-01-07T14:46:47.080Z,95653.81
2023-01-07T14:49:43.271Z,95638.63
2023-01-07T14:52:18.204Z,95647.09
2023-01-07T14:55:19.866Z,95636.88
2023-01-07T14:57:54.496Z,95653.31
2023-01-07T15:00:50.341Z,95653.50
2023-01-07T15:03:34.240Z,95663.00
2023-01-07T15:06:21.941Z,95660.00
2023-01-07T15:09:13.218Z,95658.84
2023-01-07T15:12:01.805Z,95648.66
2023-01-07T15:14:49.995Z,95649.66
2023-01-07T15:17:19.672Z,95643.72
2023-01-07T15:19:49.005Z,95640.47
2023-01-07T15:22:32.365Z,95637.53
2023-01-07T15:25:06.906Z,95637.94
2023-01-07T15:27:40.068Z,95629.38
2023-01-07T15:30:15.070Z,95632.53
2023-01-07T15:32:51.286Z,95635.44
2023-01-07T15:35:21.214Z,95634.56
2023-01-07T15:37:50.876Z,95634.53
2023-01-07T15:40:21.998Z,95628.97
2023-01-07T15:42:53.648Z,95631.88
2023-01-07T15:45:25.805Z,95638.72
2023-01-07T15:47:56.189Z,95635.22
2023-01-07T15:50:30.026Z,95630.63
2023-01-07T15:53:03.392Z,95633.81
2023-01-07T15:55:34.094Z,95628.41
2023-01-07T15:58:06.161Z,95635.53
2023-01-07T16:00:35.374Z,95631.50
2023-01-07T16:03:04.787Z,95644.22
2023-01-07T16:05:33.717Z,95639.72
2023-01-07T16:08:02.975Z,95639.28
2023-01-07T16:10:33.333Z,95640.84
2023-01-07T16:13:02.883Z,95641.38
2023-01-07T16:15:35.287Z,95632.66
2023-01-07T16:18:04.931Z,95636.19
2023-01-07T16:20:34.633Z,95627.13
2023-01-07T16:23:21.994Z,95629.25
2023-01-07T16:25:52.229Z,95629.13
2023-01-07T16:28:23.707Z,95642.44
2023-01-07T16:30:54.113Z,95630.75
2023-01-07T16:33:24.236Z,95631.56
2023-01-07T16:35:53.885Z,95622.53
2023-01-07T16:38:23.002Z,95620.69
2023-01-07T16:40:52.255Z,95635.09
2023-01-07T16:43:59.890Z,95629.00
2023-01-07T16:46:30.599Z,95625.88
2023-01-07T16:49:28.082Z,95625.88
2023-01-07T16:51:57.284Z,95627.19
2023-01-07T16:54:34.790Z,95610.75
2023-01-07T16:57:07.584Z,95622.00
2023-01-07T16:59:40.071Z,95609.31
2023-01-07T17:02:19.813Z,95600.03
2023-01-07T17:04:49.943Z,95600.91
2023-01-07T17:07:20.786Z,95600.91
2023-01-07T17:09:50.224Z,95604.34
2023-01-07T17:12:37.746Z,95603.75
2023-01-07T17:15:41.850Z,95602.16
2023-01-07T17:18:37.004Z,95601.63
2023-01-07T17:21:06.163Z,95604.34
2023-01-07T17:23:45.862Z,95610.72
2023-01-07T17:26:20.880Z,95605.41
2023-01-07T17:28:53.393Z,95593.19
2023-01-07T17:31:23.696Z,95582.56
2023-01-07T17:33:56.966Z,95586.28
2023-01-07T17:36:34.376Z,95591.09
2023-01-07T17:39:09.691Z,95592.69
2023-01-07T17:41:57.772Z,95591.66
2023-01-07T17:44:27.719Z,95583.97
2023-01-07T17:46:56.682Z,95587.97
2023-01-07T17:49:27.238Z,95576.53
2023-01-07T17:51:58.223Z,95572.28
2023-01-07T17:54:27.563Z,95572.53
2023-01-07T17:56:56.449Z,95570.94
2023-01-07T17:59:25.463Z,95561.59
2023-01-07T18:01:55.429Z,95560.56
2023-01-07T18:04:24.648Z,95552.06
2023-01-07T18:06:55.481Z,95549.34
2023-01-07T18:09:24.442Z,95547.22
2023-01-07T18:12:10.449Z,95548.25
2023-01-07T18:14:39.387Z,95543.69
2023-01-07T18:17:08.873Z,95553.25
2023-01-07T18:19:37.971Z,95533.50
2023-01-07T18:22:08.599Z,95529.50
2023-01-07T18:24:37.542Z,95537.19
2023-01-07T18:27:06.621Z,95541.69
2023-01-07T18:29:35.777Z,95531.88
2023-01-07T18:32:05.088Z,95532.38
2023-01-07T18:34:34.416Z,95536.56
2023-01-07T18:37:03.341Z,95526.97
2023-01-07T18:39:33.792Z,95525.91
2023-01-07T18:42:02.793Z,95531.47
2023-01-07T18:44:31.882Z,95531.47
2023-01-07T18:47:01.480Z,95527.19
2023-01-07T18:49:30.570Z,95539.69
2023-01-07T18:51:59.526Z,95525.03
2023-01-07T18:54:31.510Z,95530.00
2023-01-07T18:57:01.853Z,95538.50
2023-01-07T18:59:30.842Z,95539.81
2023-01-07T19:02:00.733Z,95529.47
2023-01-07T19:04:29.965Z,95522.28
2023-01-07T19:06:58.822Z,95514.56
2023-01-07T19:09:27.783Z,95519.25
2023-01-07T19:11:56.689Z,95527.25
2023-01-07T19:14:27.137Z,95517.41
2023-01-07T19:16:57.101Z,95505.56
2023-01-07T19:19:27.343Z,95509.75
2023-01-07T19:21:56.303Z,95510.31
2023-01-07T19:24:25.544Z,95505.00
2023-01-07T19:26:54.460Z,95493.00
2023-01-07T19:29:23.718Z,95488.72
2023-01-07T19:31:54.118Z,95485.19
2023-01-07T19:34:23.055Z,95483.56
2023-01-07T19:36:51.968Z,95483.31
2023-01-07T19:39:21.678Z,95474.06
2023-01-07T19:41:50.497Z,95476.75
2023-01-07T19:44:19.627Z,95482.88
2023-01-07T19:46:50.867Z,95468.28
2023-01-07T19:49:21.237Z,95472.31
2023-01-07T19:51:52.405Z,95474.97
2023-01-07T19:54:21.489Z,95474.19
2023-01-07T19:56:50.535Z,95463.31
2023-01-07T19:59:19.379Z,95464.88
2023-01-07T20:01:49.843Z,95450.78
2023-01-07T20:04:18.914Z,95455.31
2023-01-07T20:06:50.724Z,95452.41
2023-01-07T20:09:19.759Z,95444.94
2023-01-07T20:11:48.653Z,95452.59
2023-01-07T20:14:17.681Z,95460.22
2023-01-07T20:16:46.713Z,95456.66
2023-01-07T20:19:15.678Z,95450.28
2023-01-07T20:21:45.005Z,95433.63
2023-01-07T20:24:15.688Z,95440.25
2023-01-07T20:26:44.580Z,95441.69
2023-01-07T20:29:13.548Z,95446.19
2023-01-07T20:31:42.611Z,95433.00
2023-01-07T20:34:11.748Z,95427.47
2023-01-07T20:36:41.047Z,95430.44
2023-01-07T20:39:10.175Z,95426.69
2023-01-07T20:41:40.543Z,95433.84
2023-01-07T20:44:10.134Z,95426.97
2023-01-07T20:46:39.560Z,95435.94
2023-01-07T20:49:08.946Z,95437.78
2023-01-07T20:51:38.701Z,95444.72
2023-01-07T20:54:07.787Z,95431.66
2023-01-07T20:56:36.608Z,95436.38
2023-01-07T20:59:07.093Z,95442.44
2023-01-07T21:01:36.132Z,95436.81
2023-01-07T21:04:05.513Z,95430.44
2023-01-07T21:06:34.388Z,95419.31
2023-01-07T21:09:03.318Z,95421.22
2023-01-07T21:11:32.283Z,95425.47
2023-01-07T21:14:01.297Z,95426.03
2023-01-07T21:16:32.717Z,95443.56
2023-01-07T21:19:02.059Z,95429.19
2023-01-07T21:21:31.020Z,95427.88
2023-01-07T21:23:59.996Z,95430.50
2023-01-07T21:26:28.904Z,95426.53
2023-01-07T21:28:57.791Z,95416.69
2023-01-07T21:31:27.776Z,95413.75
2023-01-07T21:33:58.611Z,95407.38
2023-01-07T21:36:27.946Z,95402.06
2023-01-07T21:38:57.501Z,95405.22
2023-01-07T21:41:26.541Z,95402.03
2023-01-07T21:43:56.019Z,95405.22
2023-01-07T21:46:26.215Z,95401.28
2023-01-07T21:48:55.103Z,95406.53
2023-01-07T21:51:26.330Z,95398.06
2023-01-07T21:53:56.032Z,95399.16
2023-01-07T21:56:25.218Z,95408.19
2023-01-07T21:58:54.493Z,95409.03
2023-01-07T22:01:28.756Z,95408.22
2023-01-07T22:03:59.165Z,95406.38
2023-01-07T22:06:30.458Z,95411.38
2023-01-07T22:09:00.037Z,95411.59
2023-01-07T22:11:29.374Z,95414.75
2023-01-07T22:13:59.007Z,95406.44
2023-01-07T22:16:28.678Z,95409.63
2023-01-07T22:18:57.925Z,95415.09
2023-01-07T22:21:26.782Z,95405.28
2023-01-07T22:23:57.270Z,95407.91
2023-01-07T22:26:26.415Z,95413.16
2023-01-07T22:28:56.206Z,95404.91
2023-01-07T22:31:25.953Z,95400.03
2023-01-07T22:33:54.821Z,95407.09
2023-01-07T22:36:25.880Z,95407.88
2023-01-07T22:38:56.560Z,95406.44
2023-01-07T22:41:25.658Z,95391.03
2023-01-07T22:43:54.662Z,95386.47
2023-01-07T22:46:24.460Z,95380.34
2023-01-07T22:48:53.418Z,95386.16
2023-01-07T22:51:25.204Z,95379.75
2023-01-07T22:53:54.743Z,95386.09
2023-01-07T22:56:25.090Z,95389.31
2023-01-07T22:58:53.974Z,95382.16
2023-01-07T23:01:22.931Z,95385.09
2023-01-07T23:03:51.931Z,95373.72
2023-01-07T23:06:20.955Z,95376.59
2023-01-07T23:08:51.073Z,95367.53
2023-01-07T23:11:33.668Z,95366.97
2023-01-07T23:14:04.277Z,95360.06
2023-01-07T23:16:33.225Z,95363.72
2023-01-07T23:19:02.269Z,95366.38
2023-01-07T23:21:33.425Z,95365.91
2023-01-07T23:24:02.547Z,95368.88
2023-01-07T23:26:31.803Z,95368.69
2023-01-07T23:29:00.713Z,95357.59
2023-01-07T23:31:31.181Z,95353.06
2023-01-07T23:34:00.255Z,95346.72
2023-01-07T23:36:29.318Z,95357.88
2023-01-07T23:38:58.537Z,95353.19
2023-01-07T23:41:27.547Z,95358.28
2023-01-07T23:43:57.522Z,95360.69
2023-01-07T23:46:26.448Z,95351.50
2023-01-07T23:48:57.208Z,95349.94
2023-01-07T23:51:26.560Z,95340.63
2023-01-07T23:53:56.094Z,95337.97
2023-01-07T23:56:25.674Z,95342.22
2023-01-07T23:58:55.144Z,95323.41
